createdAt,value
2022-11-27T05:00:13.700Z,13.10
2022-11-27T05:15:18.283Z,13.20
2022-11-27T05:30:22.694Z,13.10
2022-11-27T05:45:27.433Z,13.00
2022-11-27T06:00:32.191Z,13.10
2022-11-27T06:15:37.734Z,12.70
2022-11-27T06:30:42.152Z,12.90
2022-11-27T06:45:55.298Z,13.00
2022-11-27T07:01:00.692Z,13.00
2022-11-27T07:16:07.825Z,13.00
2022-11-27T07:31:13.426Z,13.20
2022-11-27T07:46:19.661Z,13.10
2022-11-27T08:01:24.207Z,13.10
2022-11-27T08:16:29.345Z,13.10
2022-11-27T08:31:34.502Z,13.10
2022-11-27T08:46:39.335Z,13.20
2022-11-27T09:01:44.725Z,13.20
2022-11-27T09:16:49.147Z,13.30
2022-11-27T09:31:53.668Z,13.50
2022-11-27T09:47:06.123Z,13.40
2022-11-27T10:02:18.491Z,13.40
2022-11-27T10:17:30.713Z,13.50
2022-11-27T10:48:00.646Z,13.50
2022-11-27T11:03:07.261Z,13.70
2022-11-27T11:18:19.516Z,13.70
2022-11-27T11:33:24.174Z,13.50
2022-11-27T11:48:29.278Z,13.80
2022-11-27T12:03:54.941Z,13.80
2022-11-27T12:19:15.378Z,13.80
2022-11-27T12:34:30.803Z,13.90
2022-11-27T12:49:41.074Z,14.10
2022-11-27T13:04:50.880Z,14.10
2022-11-27T13:19:55.391Z,14.30
2022-11-27T13:35:04.236Z,14.30
2022-11-27T13:51:51.424Z,14.20
2022-11-27T14:07:01.033Z,14.40
2022-11-27T14:22:15.925Z,14.40
2022-11-27T14:37:25.775Z,14.30
2022-11-27T14:52:31.336Z,14.50
2022-11-27T15:07:45.355Z,14.60
2022-11-27T15:22:52.807Z,14.50
2022-11-27T15:38:04.361Z,14.30
2022-11-27T15:53:09.508Z,14.60
2022-11-27T16:08:14.682Z,14.50
2022-11-27T16:23:19.855Z,14.60
2022-11-27T16:38:25.396Z,14.60
2022-11-27T16:53:30.317Z,14.50
2022-11-27T17:08:35.481Z,14.30
2022-11-27T17:23:43.172Z,14.70
2022-11-27T17:38:48.341Z,14.70
2022-11-27T17:53:53.633Z,14.70
2022-11-27T18:08:58.699Z,14.50
2022-11-27T18:39:29.543Z,15.00
2022-11-27T18:54:36.642Z,14.90
2022-11-27T19:09:42.084Z,14.90
2022-11-27T19:24:47.342Z,14.90
2022-11-27T19:39:52.265Z,14.50
2022-11-27T19:54:57.316Z,14.50
2022-11-27T20:10:02.488Z,14.80
2022-11-27T20:25:19.479Z,14.40
2022-11-27T20:40:25.917Z,14.30
2022-11-27T20:55:32.038Z,14.60
2022-11-27T21:10:37.264Z,14.50
